Time;durP1;ratioP1;P1;durP2;ratioP2;P2;SDS_P1;SDS_P2;PMS_P1;PMS_P2;Temp;Humidity;BMP_temperature;BMP_pressure;BME280_temperature;BME280_humidity;BME280_pressure;Samples;Min_cycle;Max_cycle;Signal;HPM_P1;HPM_P2
2022/01/20 00:01:18;;;;;;;6.90;4.33;;;2.80;99.90;;;;;;5031199;28;20059;-83
2022/01/20 00:03:44;;;;;;;6.83;4.97;;;2.90;99.90;;;;;;5031938;28;20036;-82
2022/01/20 00:07:03;;;;;;;6.73;4.20;;;2.90;99.90;;;;;;5032133;28;20033;-83
2022/01/20 00:09:17;;;;;;;7.53;3.83;;;2.90;99.90;;;;;;5028404;28;20037;-82
2022/01/20 00:28:16;;;;;;;6.03;4.17;;;2.80;99.90;;;;;;5012206;28;20125;-83
2022/01/20 00:30:55;;;;;;;6.30;4.10;;;2.90;99.90;;;;;;5012245;28;20450;-83
2022/01/20 00:33:34;;;;;;;6.93;4.30;;;2.90;99.90;;;;;;5011865;28;20506;-83
2022/01/20 00:38:37;;;;;;;7.38;4.40;;;2.90;99.90;;;;;;5027994;28;20083;-82
2022/01/20 00:41:03;;;;;;;6.50;3.97;;;2.90;99.90;;;;;;5031585;28;20041;-82
2022/01/20 00:43:28;;;;;;;7.50;4.43;;;2.90;99.90;;;;;;5031642;28;20033;-82
2022/01/20 00:45:54;;;;;;;7.40;4.73;;;2.80;99.90;;;;;;5031549;28;20071;-81
2022/01/20 00:48:21;;;;;;;8.17;4.40;;;2.90;99.90;;;;;;5031401;28;20040;-82
2022/01/20 00:50:47;;;;;;;6.77;4.23;;;3.00;99.90;;;;;;5031459;28;20485;-82
2022/01/20 00:53:13;;;;;;;6.30;4.20;;;3.00;99.90;;;;;;5031614;28;20151;-82
2022/01/20 00:55:39;;;;;;;5.73;3.80;;;3.00;99.90;;;;;;5019968;28;20109;-82
2022/01/20 00:58:05;;;;;;;7.53;4.40;;;2.90;99.90;;;;;;5012330;28;20026;-82
2022/01/20 01:00:31;;;;;;;6.23;3.83;;;3.00;99.90;;;;;;5014840;28;20045;-81
2022/01/20 01:02:57;;;;;;;6.60;4.10;;;3.10;99.90;;;;;;5015439;28;20141;-82
2022/01/20 01:05:24;;;;;;;7.33;4.23;;;3.00;99.90;;;;;;5015376;28;20026;-82
2022/01/20 01:07:52;;;;;;;6.30;4.63;;;3.00;99.90;;;;;;5015385;28;20026;-82
2022/01/20 01:10:21;;;;;;;6.90;4.27;;;2.90;99.90;;;;;;5015302;28;20033;-82
2022/01/20 01:12:53;;;;;;;5.33;3.70;;;2.90;99.90;;;;;;5023830;28;20032;-82
2022/01/20 01:15:30;;;;;;;8.10;4.00;;;2.90;99.90;;;;;;5035057;28;20041;-82
2022/01/20 01:23:31;;;;;;;7.30;4.13;;;3.00;99.90;;;;;;5035055;28;20028;-82
2022/01/20 01:25:57;;;;;;;6.03;3.47;;;3.00;99.90;;;;;;5034868;28;20029;-82
2022/01/20 01:28:27;;;;;;;6.83;4.23;;;3.00;99.90;;;;;;5019424;28;20053;-82
2022/01/20 01:33:34;;;;;;;6.77;4.30;;;3.00;99.90;;;;;;5014888;28;20048;-82
2022/01/20 01:36:03;;;;;;;6.70;4.23;;;2.90;99.90;;;;;;5015197;28;20109;-83
2022/01/20 01:38:38;;;;;;;5.50;3.50;;;3.00;99.90;;;;;;5015292;28;20053;-83
2022/01/20 01:41:16;;;;;;;8.10;4.20;;;3.00;99.90;;;;;;5013734;28;20028;-83
2022/01/20 01:43:45;;;;;;;6.47;4.00;;;3.00;99.90;;;;;;5015202;28;20022;-81
2022/01/20 01:46:12;;;;;;;5.67;3.40;;;2.90;99.90;;;;;;5015009;28;20030;-83
2022/01/20 01:48:42;;;;;;;6.63;3.90;;;3.00;99.90;;;;;;5017998;28;20030;-83
2022/01/20 01:51:09;;;;;;;5.20;3.90;;;3.00;99.90;;;;;;5015015;28;20080;-82
2022/01/20 01:53:36;;;;;;;7.17;4.40;;;3.00;99.90;;;;;;5014810;28;20483;-83
2022/01/20 01:56:02;;;;;;;5.87;3.87;;;3.00;99.90;;;;;;5015010;28;20410;-81
2022/01/20 01:58:28;;;;;;;5.97;3.77;;;3.00;99.90;;;;;;5015011;28;20033;-82
2022/01/20 02:00:55;;;;;;;6.00;3.63;;;3.00;99.90;;;;;;5014786;28;20387;-83
2022/01/20 02:03:21;;;;;;;5.83;3.40;;;3.00;99.90;;;;;;5013633;28;20040;-82
2022/01/20 02:06:51;;;;;;;5.60;3.60;;;3.10;99.90;;;;;;5014751;28;20059;-83
2022/01/20 02:08:39;;;;;;;7.20;3.73;;;3.00;99.90;;;;;;5026507;28;20045;-83
2022/01/20 02:19:34;;;;;;;5.67;3.77;;;2.90;99.90;;;;;;5034231;28;20028;-82
2022/01/20 02:22:03;;;;;;;5.80;3.80;;;3.00;99.90;;;;;;5033933;28;20108;-83
2022/01/20 02:24:31;;;;;;;6.47;3.90;;;2.90;99.90;;;;;;5034327;28;20080;-83
2022/01/20 02:26:58;;;;;;;4.73;3.33;;;3.00;99.90;;;;;;5033949;28;20022;-82
2022/01/20 02:29:24;;;;;;;6.37;3.70;;;3.00;99.90;;;;;;5033569;28;20017;-83
2022/01/20 02:31:55;;;;;;;5.90;3.60;;;2.90;99.90;;;;;;5033784;28;20650;-82
2022/01/20 02:34:23;;;;;;;5.37;3.47;;;2.90;99.90;;;;;;5033900;28;20401;-82
2022/01/20 02:36:48;;;;;;;6.63;3.60;;;2.90;99.90;;;;;;5034083;28;20795;-83
2022/01/20 02:44:51;;;;;;;6.47;4.00;;;2.90;99.90;;;;;;5033567;28;20036;-83
2022/01/20 02:47:19;;;;;;;7.77;4.27;;;2.80;99.90;;;;;;5013690;28;20164;-83
2022/01/20 02:49:45;;;;;;;7.53;4.03;;;2.80;99.90;;;;;;5013792;28;20029;-83
2022/01/20 02:52:11;;;;;;;7.53;4.00;;;2.70;99.90;;;;;;5012348;28;20113;-83
2022/01/20 02:54:37;;;;;;;6.80;4.27;;;2.70;99.90;;;;;;5013526;28;20100;-81
2022/01/20 02:57:04;;;;;;;5.90;3.90;;;2.70;99.90;;;;;;5013697;28;20030;-81
2022/01/20 02:59:30;;;;;;;5.90;3.93;;;2.60;99.90;;;;;;5013901;28;20360;-82
2022/01/20 03:01:56;;;;;;;4.50;3.50;;;2.60;99.90;;;;;;5013702;28;20026;-82
2022/01/20 03:04:25;;;;;;;6.33;3.70;;;2.60;99.90;;;;;;5013304;28;20026;-82
2022/01/20 03:06:51;;;;;;;5.10;3.83;;;2.50;99.90;;;;;;5013480;28;20018;-82
2022/01/20 03:09:16;;;;;;;7.07;4.60;;;2.60;99.90;;;;;;5013422;28;20036;-83
2022/01/20 03:11:42;;;;;;;7.27;4.20;;;2.60;99.90;;;;;;5013175;28;20094;-83
2022/01/20 03:14:07;;;;;;;5.93;4.00;;;2.60;99.90;;;;;;5013084;28;20101;-83
2022/01/20 03:16:33;;;;;;;5.67;3.80;;;2.60;99.90;;;;;;5013307;28;20487;-83
2022/01/20 03:18:59;;;;;;;5.10;3.70;;;2.70;99.90;;;;;;5012845;28;20026;-83
2022/01/20 03:21:24;;;;;;;5.47;4.13;;;2.70;99.90;;;;;;5011601;28;20034;-83
2022/01/20 03:23:50;;;;;;;6.73;4.13;;;2.60;99.90;;;;;;5012165;28;20030;-83
2022/01/20 03:26:15;;;;;;;5.57;3.53;;;2.50;99.90;;;;;;5013050;28;20026;-83
2022/01/20 03:28:41;;;;;;;5.77;3.57;;;2.50;99.90;;;;;;5013479;28;20152;-83
2022/01/20 03:31:07;;;;;;;7.50;3.90;;;2.40;99.90;;;;;;5031480;28;20382;-83
2022/01/20 03:33:32;;;;;;;7.03;4.60;;;2.40;99.90;;;;;;5024204;28;20462;-83
2022/01/20 03:35:58;;;;;;;6.57;4.80;;;2.30;99.90;;;;;;5021247;28;20462;-83
2022/01/20 03:38:24;;;;;;;7.50;4.13;;;2.20;99.90;;;;;;5032678;28;20844;-83
2022/01/20 03:40:50;;;;;;;6.03;4.17;;;2.10;99.90;;;;;;5032654;28;20037;-83
2022/01/20 03:43:16;;;;;;;6.73;4.00;;;2.10;99.90;;;;;;5032666;28;20049;-83
2022/01/20 03:45:43;;;;;;;7.53;4.00;;;2.10;99.90;;;;;;5031509;28;20111;-82
2022/01/20 03:48:11;;;;;;;5.90;3.93;;;2.20;99.90;;;;;;5032752;28;20159;-83
2022/01/20 03:53:22;;;;;;;6.05;4.00;;;2.00;99.90;;;;;;5012963;28;20032;-82
2022/01/20 03:55:47;;;;;;;6.53;4.80;;;2.00;99.90;;;;;;5011799;28;20034;-82
2022/01/20 03:58:13;;;;;;;8.40;5.07;;;1.90;99.90;;;;;;5013623;28;20612;-83
2022/01/20 04:00:39;;;;;;;6.23;4.53;;;1.90;99.90;;;;;;5014384;28;20037;-83
2022/01/20 04:03:04;;;;;;;8.47;5.40;;;1.80;99.90;;;;;;5015511;28;20037;-83
2022/01/20 04:05:30;;;;;;;7.83;4.80;;;1.70;99.90;;;;;;5015569;28;20048;-84
2022/01/20 04:07:56;;;;;;;6.43;4.50;;;1.60;99.90;;;;;;5015614;28;20030;-81
2022/01/20 04:10:21;;;;;;;6.53;4.77;;;1.60;99.90;;;;;;5019976;28;20065;-83
2022/01/20 04:12:47;;;;;;;5.80;4.50;;;1.50;99.90;;;;;;5020693;28;20038;-84
2022/01/20 04:15:15;;;;;;;7.07;4.80;;;1.40;99.90;;;;;;5022311;28;20121;-83
2022/01/20 04:17:43;;;;;;;7.67;5.03;;;1.50;99.90;;;;;;5023663;28;20026;-83
2022/01/20 04:20:09;;;;;;;7.00;4.53;;;1.50;99.90;;;;;;5025140;28;20132;-84
2022/01/20 04:22:35;;;;;;;6.53;5.00;;;1.50;99.90;;;;;;5021572;28;20101;-84
2022/01/20 04:25:01;;;;;;;7.67;5.27;;;1.40;99.90;;;;;;5021566;28;20042;-84
2022/01/20 04:27:26;;;;;;;6.53;4.30;;;1.40;99.90;;;;;;5024113;28;20026;-83
2022/01/20 04:29:52;;;;;;;7.60;5.03;;;1.40;99.90;;;;;;5022000;28;20037;-84
2022/01/20 04:32:18;;;;;;;7.53;4.40;;;1.30;99.90;;;;;;5025728;28;20022;-82
2022/01/20 04:34:44;;;;;;;6.00;4.60;;;1.40;99.90;;;;;;5037757;28;20028;-82
2022/01/20 04:37:10;;;;;;;7.67;5.33;;;1.30;99.90;;;;;;5050317;28;20129;-83
2022/01/20 04:39:43;;;;;;;8.63;4.70;;;1.30;99.90;;;;;;5053152;28;20052;-82
2022/01/20 04:42:09;;;;;;;7.23;4.53;;;1.40;99.90;;;;;;5050153;28;20382;-82
2022/01/20 04:57:44;;;;;;;8.83;5.70;;;1.20;99.90;;;;;;5033607;28;20037;-83
2022/01/20 05:00:10;;;;;;;8.03;5.53;;;1.20;99.90;;;;;;5035060;28;20026;-82
2022/01/20 05:02:35;;;;;;;7.60;5.20;;;1.30;99.90;;;;;;5035416;28;20025;-82
2022/01/20 05:05:01;;;;;;;8.27;5.73;;;1.20;99.90;;;;;;5033343;28;20034;-82
2022/01/20 05:07:28;;;;;;;8.87;6.03;;;1.30;99.90;;;;;;5024632;28;20066;-83
2022/01/20 05:09:56;;;;;;;8.33;5.70;;;1.30;99.90;;;;;;5029891;28;20014;-83
2022/01/20 05:12:30;;;;;;;8.53;5.77;;;1.20;99.90;;;;;;5028341;28;20053;-83
2022/01/20 05:14:56;;;;;;;7.40;5.13;;;1.20;99.90;;;;;;5015216;28;20022;-82
2022/01/20 05:17:22;;;;;;;8.13;5.43;;;1.30;99.90;;;;;;5015926;28;20030;-83
2022/01/20 05:19:47;;;;;;;10.10;6.20;;;1.20;99.90;;;;;;5006850;28;20085;-83
2022/01/20 05:22:13;;;;;;;8.60;6.20;;;1.20;99.90;;;;;;5009380;28;20030;-84
2022/01/20 05:24:39;;;;;;;9.83;6.57;;;1.20;99.90;;;;;;5004353;28;20032;-84
2022/01/20 05:27:05;;;;;;;8.70;6.70;;;1.20;99.90;;;;;;5010490;28;20022;-83
2022/01/20 05:29:30;;;;;;;9.27;5.53;;;1.10;99.90;;;;;;5011360;28;20447;-88
2022/01/20 05:31:56;;;;;;;10.77;6.10;;;1.20;99.90;;;;;;5018324;28;20114;-89
2022/01/20 05:34:22;;;;;;;12.43;6.87;;;1.20;99.90;;;;;;5008549;28;20022;-87
2022/01/20 05:36:48;;;;;;;10.73;6.60;;;1.20;99.90;;;;;;5007196;28;20018;-88
2022/01/20 05:39:14;;;;;;;9.43;7.00;;;1.20;99.90;;;;;;5007160;28;20030;-88
2022/01/20 05:41:40;;;;;;;11.43;7.03;;;1.20;99.90;;;;;;5011873;28;20449;-89
2022/01/20 05:44:06;;;;;;;10.33;6.40;;;1.20;99.90;;;;;;5011873;28;20038;-89
2022/01/20 05:46:39;;;;;;;11.17;6.73;;;1.20;99.90;;;;;;5027932;28;20176;-89
2022/01/20 05:49:09;;;;;;;9.70;7.07;;;1.30;99.90;;;;;;5015088;28;20376;-90
2022/01/20 05:51:36;;;;;;;10.10;7.13;;;1.30;99.90;;;;;;5003618;28;20022;-90
2022/01/20 05:54:02;;;;;;;10.67;7.33;;;1.20;99.90;;;;;;5001822;28;20033;-88
2022/01/20 05:56:27;;;;;;;9.57;6.97;;;1.20;99.90;;;;;;5011977;28;20466;-85
2022/01/20 05:58:53;;;;;;;11.70;6.60;;;1.30;99.90;;;;;;5017668;28;20037;-85
2022/01/20 06:01:19;;;;;;;12.93;7.60;;;1.30;99.90;;;;;;5015422;28;20033;-77
2022/01/20 06:03:44;;;;;;;10.70;6.93;;;1.30;99.90;;;;;;5029144;28;20394;-76
2022/01/20 06:06:12;;;;;;;11.00;6.97;;;1.30;99.90;;;;;;5013976;28;20084;-77
2022/01/20 06:08:44;;;;;;;9.40;6.77;;;1.30;99.90;;;;;;5013871;28;20053;-76
2022/01/20 06:11:10;;;;;;;10.83;6.90;;;1.30;99.90;;;;;;5012590;28;20025;-76
2022/01/20 06:13:35;;;;;;;8.90;6.13;;;1.30;99.90;;;;;;5013837;28;20033;-76
2022/01/20 06:16:02;;;;;;;12.50;7.33;;;1.50;99.90;;;;;;5007887;28;20087;-77
2022/01/20 06:18:28;;;;;;;12.30;6.93;;;1.40;99.90;;;;;;5009135;28;20367;-84
2022/01/20 06:20:54;;;;;;;9.30;6.73;;;1.40;99.90;;;;;;4999977;28;20041;-87
2022/01/20 06:23:22;;;;;;;9.27;6.17;;;1.50;99.90;;;;;;4994593;28;20073;-77
2022/01/20 06:25:47;;;;;;;11.13;7.27;;;1.50;99.90;;;;;;4993396;28;20057;-77
2022/01/20 06:28:14;;;;;;;8.53;5.93;;;1.50;99.90;;;;;;5014474;28;20026;-86
2022/01/20 06:30:40;;;;;;;9.73;6.07;;;1.40;99.90;;;;;;5034627;28;20029;-86
2022/01/20 06:33:07;;;;;;;8.93;5.93;;;1.50;99.90;;;;;;5034286;28;20489;-86
2022/01/20 06:35:33;;;;;;;8.07;5.50;;;1.60;99.90;;;;;;5034186;28;20055;-76
2022/01/20 06:37:59;;;;;;;9.43;5.50;;;1.70;99.90;;;;;;5032497;28;20107;-76
2022/01/20 06:40:24;;;;;;;7.97;5.47;;;1.60;99.90;;;;;;5032397;28;20104;-76
2022/01/20 06:42:50;;;;;;;7.63;5.33;;;1.60;99.90;;;;;;5032798;28;20037;-76
2022/01/20 06:45:18;;;;;;;6.70;4.60;;;1.50;99.90;;;;;;5013635;28;20049;-70
2022/01/20 06:47:43;;;;;;;7.27;5.03;;;1.60;99.90;;;;;;5011838;28;20119;-77
2022/01/20 06:50:11;;;;;;;6.17;4.47;;;1.50;99.90;;;;;;5012311;28;20057;-85
2022/01/20 06:52:38;;;;;;;7.33;5.37;;;1.50;99.90;;;;;;5010152;28;20041;-77
2022/01/20 06:55:07;;;;;;;6.13;4.60;;;1.50;99.90;;;;;;5011698;28;20033;-77
2022/01/20 06:57:36;;;;;;;6.37;4.73;;;1.60;99.90;;;;;;5005611;28;20034;-75
2022/01/20 07:00:05;;;;;;;5.57;4.27;;;1.60;99.90;;;;;;5009913;28;20478;-77
2022/01/20 07:02:30;;;;;;;5.90;4.73;;;1.60;99.90;;;;;;5012864;28;20539;-75
2022/01/20 07:04:56;;;;;;;6.47;4.40;;;1.50;99.90;;;;;;5009551;28;20104;-76
2022/01/20 07:07:25;;;;;;;6.50;4.43;;;1.50;99.90;;;;;;5008637;28;20128;-75
2022/01/20 07:09:50;;;;;;;6.10;4.10;;;1.50;99.90;;;;;;5005755;28;20034;-78
2022/01/20 07:12:16;;;;;;;6.80;4.87;;;1.60;99.90;;;;;;5005736;28;20025;-78
2022/01/20 07:14:42;;;;;;;5.30;4.20;;;1.60;99.90;;;;;;5006586;28;20781;-86
2022/01/20 07:17:07;;;;;;;6.30;4.43;;;1.60;99.90;;;;;;5006898;28;20111;-78
2022/01/20 07:19:33;;;;;;;6.77;4.53;;;1.60;99.90;;;;;;5005469;28;20113;-78
2022/01/20 07:22:00;;;;;;;7.33;4.37;;;1.60;99.90;;;;;;5005753;28;20060;-77
2022/01/20 07:24:30;;;;;;;6.27;4.37;;;1.60;99.90;;;;;;5005011;28;20064;-77
2022/01/20 07:26:57;;;;;;;5.70;4.60;;;1.70;99.90;;;;;;5007760;28;20018;-74
2022/01/20 07:29:23;;;;;;;5.23;4.00;;;1.70;99.90;;;;;;5010686;28;20389;-76
2022/01/20 07:31:53;;;;;;;5.73;4.20;;;1.70;99.90;;;;;;5007650;28;20038;-75
2022/01/20 07:34:20;;;;;;;6.00;4.70;;;1.60;99.90;;;;;;5007526;28;20021;-76
2022/01/20 07:36:46;;;;;;;5.80;4.37;;;1.60;99.90;;;;;;5008759;28;20041;-76
2022/01/20 07:39:11;;;;;;;5.63;4.17;;;1.60;99.90;;;;;;5007626;28;20046;-78
2022/01/20 07:41:37;;;;;;;7.10;4.37;;;1.60;99.90;;;;;;5020818;28;20053;-84
2022/01/20 07:44:03;;;;;;;6.17;4.30;;;1.70;99.90;;;;;;5011242;28;20018;-85
2022/01/20 07:46:28;;;;;;;5.77;4.20;;;1.80;99.90;;;;;;5009546;28;20056;-85
2022/01/20 07:48:54;;;;;;;6.20;4.87;;;1.80;99.90;;;;;;5008544;28;20080;-78
2022/01/20 07:51:20;;;;;;;6.93;4.80;;;1.70;99.90;;;;;;5009508;28;20109;-79
2022/01/20 07:53:46;;;;;;;6.47;4.40;;;1.80;99.90;;;;;;5011310;28;20030;-78
2022/01/20 07:56:12;;;;;;;5.67;4.30;;;1.90;99.90;;;;;;5006772;28;20409;-77
2022/01/20 07:58:37;;;;;;;6.60;4.43;;;2.00;99.90;;;;;;5009306;28;20665;-77
2022/01/20 08:01:04;;;;;;;6.07;4.50;;;1.90;99.90;;;;;;5006466;28;20030;-78
2022/01/20 08:03:30;;;;;;;6.03;4.50;;;1.90;99.90;;;;;;5005677;28;20037;-86
2022/01/20 08:05:56;;;;;;;6.03;4.33;;;1.90;99.90;;;;;;5008447;28;20041;-86
2022/01/20 08:08:22;;;;;;;5.30;4.27;;;1.80;99.90;;;;;;5009522;28;20073;-76
2022/01/20 08:10:48;;;;;;;5.67;4.40;;;1.80;99.90;;;;;;5004794;28;20367;-76
2022/01/20 08:13:13;;;;;;;5.93;4.53;;;1.80;99.90;;;;;;5007441;28;20030;-76
2022/01/20 08:15:39;;;;;;;6.43;4.70;;;1.80;99.90;;;;;;5007471;28;20045;-76
2022/01/20 08:18:07;;;;;;;7.33;4.67;;;1.70;99.90;;;;;;5008736;28;20075;-86
2022/01/20 08:20:37;;;;;;;5.37;3.90;;;1.80;99.90;;;;;;5007630;28;20022;-76
2022/01/20 08:23:02;;;;;;;5.60;4.00;;;1.80;99.90;;;;;;5010097;28;20029;-78
2022/01/20 08:25:29;;;;;;;5.40;3.93;;;1.80;99.90;;;;;;5005365;28;20022;-82
2022/01/20 08:27:56;;;;;;;5.17;3.77;;;1.80;99.90;;;;;;5007073;28;20030;-76
2022/01/20 08:30:24;;;;;;;4.63;3.80;;;1.90;99.90;;;;;;5010309;28;20014;-83
2022/01/20 08:32:54;;;;;;;5.57;3.83;;;1.90;99.90;;;;;;5011935;28;20037;-83
2022/01/20 08:35:23;;;;;;;5.17;4.00;;;2.00;99.90;;;;;;5011418;28;20443;-78
2022/01/20 08:37:49;;;;;;;7.03;4.43;;;1.90;99.90;;;;;;5019389;28;20033;-83
2022/01/20 08:40:18;;;;;;;5.73;3.70;;;1.90;99.90;;;;;;5027476;28;20143;-84
2022/01/20 08:42:47;;;;;;;5.17;3.77;;;1.80;99.90;;;;;;5010403;28;20068;-84
2022/01/20 08:45:15;;;;;;;5.63;3.83;;;1.80;99.90;;;;;;5009849;28;20061;-85
2022/01/20 08:47:42;;;;;;;5.33;4.13;;;1.80;99.90;;;;;;5007963;28;20034;-85
2022/01/20 08:50:09;;;;;;;5.07;4.27;;;1.80;99.90;;;;;;5018145;28;20511;-75
2022/01/20 08:52:35;;;;;;;4.90;3.83;;;1.80;99.90;;;;;;5017721;28;20477;-75
2022/01/20 08:55:01;;;;;;;6.17;4.63;;;1.80;99.90;;;;;;5010666;28;20025;-83
2022/01/20 08:57:29;;;;;;;4.53;3.67;;;1.90;99.90;;;;;;5024668;28;20049;-83
2022/01/20 08:59:55;;;;;;;6.60;4.00;;;1.90;99.90;;;;;;5010771;28;20034;-82
2022/01/20 09:02:22;;;;;;;4.77;3.87;;;1.90;99.90;;;;;;5011182;28;20041;-83
2022/01/20 09:04:48;;;;;;;4.63;3.53;;;2.00;99.90;;;;;;5011090;28;20037;-82
2022/01/20 09:07:14;;;;;;;5.73;4.33;;;2.10;99.90;;;;;;5011540;28;20057;-81
2022/01/20 09:09:45;;;;;;;6.93;3.90;;;2.10;99.90;;;;;;5009512;28;20490;-74
2022/01/20 09:17:25;;;;;;;5.60;3.93;;;2.10;99.90;;;;;;5011968;28;20069;-82
2022/01/20 09:19:52;;;;;;;5.53;4.00;;;2.10;99.90;;;;;;5014750;28;20072;-82
2022/01/20 09:22:19;;;;;;;4.63;3.63;;;2.10;99.90;;;;;;5014504;28;20034;-76
2022/01/20 09:24:45;;;;;;;5.50;4.10;;;2.10;99.90;;;;;;5011773;28;20025;-77
2022/01/20 09:27:12;;;;;;;5.20;3.97;;;2.20;99.90;;;;;;5026192;28;20746;-77
2022/01/20 09:29:38;;;;;;;4.40;3.30;;;2.20;99.90;;;;;;5026208;28;20026;-77
2022/01/20 09:32:06;;;;;;;6.60;4.80;;;2.20;99.90;;;;;;5010810;28;20029;-76
2022/01/20 09:34:32;;;;;;;5.90;4.33;;;2.20;99.90;;;;;;5029543;28;20104;-76
2022/01/20 09:36:58;;;;;;;5.63;4.07;;;2.10;99.90;;;;;;5019072;28;20113;-76
2022/01/20 09:39:24;;;;;;;6.87;4.80;;;2.10;99.90;;;;;;5016953;28;20079;-76
2022/01/20 09:41:49;;;;;;;5.63;4.43;;;2.20;99.90;;;;;;5033467;28;20113;-77
2022/01/20 09:44:15;;;;;;;7.70;4.73;;;2.30;99.90;;;;;;5017600;28;20118;-85
2022/01/20 09:46:45;;;;;;;6.17;3.53;;;2.40;99.90;;;;;;5029986;28;20080;-85
2022/01/20 09:49:12;;;;;;;6.37;3.10;;;2.70;99.90;;;;;;5024752;28;20056;-85
2022/01/20 09:51:48;;;;;;;6.20;3.50;;;2.80;99.90;;;;;;5021781;28;20394;-82
2022/01/20 09:54:14;;;;;;;6.07;3.83;;;2.80;99.90;;;;;;5008375;28;20042;-83
2022/01/20 09:56:44;;;;;;;4.60;3.47;;;2.80;99.90;;;;;;5007997;28;20452;-84
2022/01/20 09:59:09;;;;;;;6.40;3.80;;;2.80;99.90;;;;;;5009098;28;20051;-84
2022/01/20 10:01:45;;;;;;;5.43;3.60;;;2.80;99.90;;;;;;5013089;28;20370;-84
2022/01/20 10:04:17;;;;;;;;;;;2.80;99.90;;;;;;5007681;28;20115;-84
2022/01/20 10:06:57;;;;;;;8.00;3.90;;;2.80;99.90;;;;;;5015012;28;19912;-81
2022/01/20 10:09:38;;;;;;;6.00;3.57;;;2.80;99.90;;;;;;5030249;28;20006;-83
2022/01/20 10:12:06;;;;;;;5.07;3.93;;;2.90;99.90;;;;;;5021491;28;20086;-81
2022/01/20 10:14:45;;;;;;;7.33;3.93;;;2.80;99.90;;;;;;5029229;28;20018;-80
2022/01/20 10:17:23;;;;;;;5.83;4.13;;;2.80;99.90;;;;;;5027293;28;20375;-80
2022/01/20 10:19:54;;;;;;;5.57;4.00;;;2.80;99.90;;;;;;5027655;28;20044;-81
2022/01/20 10:22:23;;;;;;;6.60;4.20;;;2.80;99.90;;;;;;5026628;28;20025;-80
2022/01/20 10:25:02;;;;;;;5.17;4.17;;;2.80;99.90;;;;;;5023464;28;20134;-79
2022/01/20 10:27:31;;;;;;;5.27;3.50;;;2.90;99.90;;;;;;5012407;28;20025;-77
2022/01/20 10:29:59;;;;;;;5.00;4.00;;;2.80;99.90;;;;;;5004223;28;20023;-82
2022/01/20 10:32:26;;;;;;;5.40;4.10;;;2.80;99.90;;;;;;5007613;28;20037;-82
2022/01/20 10:35:04;;;;;;;6.80;3.90;;;2.90;99.90;;;;;;5011069;28;20026;-82
2022/01/20 10:37:31;;;;;;;4.83;3.80;;;3.00;99.90;;;;;;5008091;28;20032;-81
2022/01/20 10:40:09;;;;;;;5.17;4.10;;;3.00;99.90;;;;;;5015079;28;20514;-74
2022/01/20 10:42:41;;;;;;;4.97;3.00;;;3.20;99.90;;;;;;5014623;28;20411;-74
2022/01/20 10:45:08;;;;;;;5.80;3.50;;;3.20;99.90;;;;;;5010233;28;20022;-76
2022/01/20 10:47:36;;;;;;;5.70;3.50;;;3.40;99.90;;;;;;5005279;28;20026;-79
2022/01/20 10:50:36;;;;;;;4.23;3.40;;;3.50;99.90;;;;;;5007709;28;20096;-80
2022/01/20 10:53:01;;;;;;;5.03;3.63;;;3.70;99.90;;;;;;4983794;28;20049;-79
2022/01/20 10:55:36;;;;;;;4.83;3.70;;;3.70;99.90;;;;;;5014282;28;20022;-74
2022/01/20 10:58:22;;;;;;;4.68;3.55;;;3.80;99.90;;;;;;5014589;28;20049;-75
2022/01/20 11:00:53;;;;;;;4.80;3.43;;;3.90;99.90;;;;;;5012534;28;20025;-74
2022/01/20 11:03:20;;;;;;;5.40;3.60;;;4.00;99.90;;;;;;5012688;28;20025;-75
2022/01/20 11:05:52;;;;;;;4.57;3.20;;;4.00;99.90;;;;;;5012565;28;20117;-83
2022/01/20 11:08:18;;;;;;;6.27;3.97;;;4.10;99.90;;;;;;5008674;28;20032;-83
2022/01/20 11:10:45;;;;;;;4.30;3.30;;;4.10;99.90;;;;;;5009902;28;20030;-81
2022/01/20 11:13:11;;;;;;;4.70;3.27;;;4.10;99.90;;;;;;5006671;28;20237;-80
2022/01/20 11:15:38;;;;;;;5.20;3.17;;;4.10;99.90;;;;;;5008763;28;20081;-83
2022/01/20 11:18:05;;;;;;;5.13;3.53;;;4.10;99.90;;;;;;5011002;28;20153;-83
2022/01/20 11:20:40;;;;;;;4.63;3.20;;;4.10;99.90;;;;;;5011798;28;20537;-83
2022/01/20 11:23:07;;;;;;;3.33;2.45;;;4.00;99.90;;;;;;5011447;28;20026;-83
2022/01/20 11:25:35;;;;;;;6.23;3.27;;;3.90;99.90;;;;;;5011575;28;20068;-83
2022/01/20 11:28:15;;;;;;;5.30;3.17;;;3.90;99.90;;;;;;5011496;28;20036;-83
2022/01/20 11:30:52;;;;;;;4.67;3.00;;;4.00;99.90;;;;;;5010549;28;20036;-84
2022/01/20 11:33:18;;;;;;;6.67;3.13;;;4.00;99.90;;;;;;5010055;28;20030;-83
2022/01/20 11:35:49;;;;;;;6.13;3.17;;;3.80;99.90;;;;;;5011672;28;20467;-83
2022/01/20 11:38:18;;;;;;;5.40;3.57;;;3.80;99.90;;;;;;5009697;28;20358;-83
2022/01/20 11:40:49;;;;;;;6.93;3.53;;;3.90;99.90;;;;;;5009866;28;20034;-83
2022/01/20 11:43:15;;;;;;;6.40;3.20;;;4.00;99.90;;;;;;5008969;28;20040;-83
2022/01/20 11:45:50;;;;;;;6.30;3.13;;;4.10;99.90;;;;;;5010219;28;20447;-82
2022/01/20 11:48:20;;;;;;;6.20;3.70;;;4.20;99.90;;;;;;5008205;28;20774;-82
2022/01/20 11:50:48;;;;;;;5.83;3.10;;;4.40;99.90;;;;;;5016988;28;20033;-83
2022/01/20 11:53:19;;;;;;;8.00;3.67;;;4.50;99.90;;;;;;5028306;28;20036;-82
2022/01/20 11:55:50;;;;;;;6.47;3.30;;;4.50;99.90;;;;;;5010532;28;20650;-82
2022/01/20 11:58:19;;;;;;;6.20;2.97;;;4.40;99.90;;;;;;5008164;28;20057;-82
2022/01/20 12:00:56;;;;;;;6.83;2.70;;;4.40;99.90;;;;;;5008966;28;20560;-83
2022/01/20 12:03:21;;;;;;;6.03;2.83;;;4.30;99.90;;;;;;5009965;28;20859;-83
2022/01/20 12:06:22;;;;;;;8.63;3.00;;;4.30;99.90;;;;;;5009587;28;20029;-83
2022/01/20 12:08:57;;;;;;;4.33;2.70;;;4.10;99.90;;;;;;5014416;28;20025;-82
2022/01/20 12:11:37;;;;;;;5.88;3.08;;;4.00;99.90;;;;;;5017833;28;20040;-82
2022/01/20 12:14:06;;;;;;;5.33;2.83;;;3.90;99.90;;;;;;5018276;28;20833;-82
2022/01/20 12:16:32;;;;;;;5.23;3.40;;;3.90;99.90;;;;;;5027631;28;20056;-83
2022/01/20 12:18:59;;;;;;;4.33;3.03;;;3.80;99.90;;;;;;5027838;28;20025;-82
2022/01/20 12:21:26;;;;;;;7.97;3.50;;;3.80;99.90;;;;;;5028621;28;20112;-82
2022/01/20 12:23:53;;;;;;;5.63;2.70;;;3.70;99.90;;;;;;5026551;28;20041;-82
2022/01/20 12:26:19;;;;;;;5.90;2.90;;;3.80;99.90;;;;;;5027483;28;20030;-82
2022/01/20 12:28:45;;;;;;;6.77;3.13;;;3.80;99.90;;;;;;5011850;28;20469;-82
2022/01/20 12:31:14;;;;;;;5.03;3.00;;;3.70;99.90;;;;;;5008979;28;20499;-82
2022/01/20 12:33:46;;;;;;;5.60;2.90;;;3.60;99.90;;;;;;5014107;28;20033;-82
2022/01/20 12:36:15;;;;;;;4.30;2.90;;;3.60;99.90;;;;;;5028396;28;20044;-83
2022/01/20 12:38:41;;;;;;;5.10;2.57;;;3.70;99.90;;;;;;5028581;28;20055;-83
2022/01/20 12:41:12;;;;;;;7.43;2.63;;;3.90;99.90;;;;;;5028822;28;20115;-83
2022/01/20 12:43:55;;;;;;;4.10;2.40;;;3.70;99.90;;;;;;5027045;28;20072;-83
2022/01/20 12:46:25;;;;;;;6.13;3.10;;;3.70;99.90;;;;;;5028712;28;20037;-83
2022/01/20 12:48:54;;;;;;;5.17;2.37;;;3.70;99.90;;;;;;5025971;28;20033;-83
2022/01/20 12:51:41;;;;;;;4.23;2.70;;;3.60;99.90;;;;;;5027483;28;20032;-83
2022/01/20 12:54:27;;;;;;;6.77;2.70;;;3.40;99.90;;;;;;5031829;28;20026;-82
2022/01/20 12:56:54;;;;;;;;;;;3.40;99.90;;;;;;5012520;28;20479;-83
2022/01/20 12:59:43;;;;;;;6.57;3.33;;;3.40;99.90;;;;;;5013290;28;19916;-82
2022/01/20 13:02:23;;;;;;;6.00;2.90;;;3.40;99.90;;;;;;4984157;28;20497;-83
2022/01/20 13:04:56;;;;;;;5.23;2.93;;;3.40;99.90;;;;;;4993709;28;20045;-83
2022/01/20 13:07:22;;;;;;;4.90;2.83;;;3.40;99.90;;;;;;5013162;28;20066;-83
2022/01/20 13:10:01;;;;;;;5.53;2.60;;;3.60;99.90;;;;;;5030716;28;20476;-83
2022/01/20 13:12:35;;;;;;;4.13;2.80;;;3.50;99.90;;;;;;5022746;28;20119;-83
2022/01/20 13:15:04;;;;;;;10.80;3.33;;;3.50;99.90;;;;;;5012528;28;20114;-83
2022/01/20 13:17:31;;;;;;;4.40;3.00;;;3.50;99.90;;;;;;5012527;28;20029;-84
2022/01/20 13:19:59;;;;;;;4.73;2.70;;;3.50;99.90;;;;;;5012752;28;20080;-84
2022/01/20 13:22:53;;;;;;;3.30;2.60;;;3.50;99.90;;;;;;5012649;28;20033;-84
2022/01/20 13:25:21;;;;;;;6.13;3.33;;;3.40;99.90;;;;;;5010917;28;20036;-83
2022/01/20 13:27:56;;;;;;;5.63;3.20;;;3.40;99.90;;;;;;5014907;28;20040;-84
2022/01/20 13:30:30;;;;;;;4.22;3.10;;;3.30;99.90;;;;;;5009172;28;20461;-84
2022/01/20 13:32:57;;;;;;;7.10;3.00;;;3.30;99.90;;;;;;5017128;28;20029;-84
2022/01/20 13:35:24;;;;;;;4.73;2.90;;;3.30;99.90;;;;;;5013689;28;20387;-84
2022/01/20 13:38:05;;;;;;;3.80;3.13;;;3.20;99.90;;;;;;5005911;28;20278;-84
2022/01/20 13:40:32;;;;;;;5.67;3.20;;;3.10;99.90;;;;;;5005790;28;20111;-84
2022/01/20 13:45:43;;;;;;;4.53;3.00;;;3.10;99.90;;;;;;5030025;28;20124;-84
2022/01/20 13:48:10;;;;;;;5.93;3.70;;;3.00;99.90;;;;;;5014957;28;20096;-84
2022/01/20 13:50:41;;;;;;;5.20;3.17;;;3.00;99.90;;;;;;5022146;28;20378;-84
2022/01/20 13:53:15;;;;;;;4.30;2.80;;;3.00;99.90;;;;;;5030217;28;20424;-84
2022/01/20 13:55:43;;;;;;;5.00;3.27;;;3.10;99.90;;;;;;5020504;28;20136;-84
2022/01/20 13:58:30;;;;;;;5.83;3.20;;;3.20;99.90;;;;;;5009122;28;20026;-84
2022/01/20 14:00:59;;;;;;;5.37;3.30;;;3.10;99.90;;;;;;5014444;28;20033;-82
2022/01/20 14:03:25;;;;;;;4.57;2.80;;;3.10;99.90;;;;;;5029081;28;20471;-83
2022/01/20 14:05:55;;;;;;;6.83;3.23;;;3.10;99.90;;;;;;5011801;28;20589;-83
2022/01/20 14:08:21;;;;;;;4.97;3.50;;;3.10;99.90;;;;;;5014272;28;20033;-83
2022/01/20 14:10:47;;;;;;;4.37;2.70;;;3.10;99.90;;;;;;5026802;28;20125;-83